Buoy 13569

sailwx.info

Track history (hours):
 
Tides and Currents Weather Stations Pressure Air Temp Water Temp Dewpoint Dewpoint Depression Visibility Wind Speed Wind Dir Waves Ship Positions

Drifting buoy 13569

Last reported at 2015-Aug-04 04:00 UTC. Time now 2015-Aug-04 07:28 UTC.
Position N 26°33' W 030°51'.

Barometer 1021.4 mb
Water temperature 25.8 ° C

Date/timePositionNaut miles runAvg speedWind from/ knotsBaromVisibWave heightAir tempDewpointWater temp
2015-Aug-04 04:00N 26°33' W 030°51'0 0.0 1021.4 25.8
2015-Aug-04 03:00N 26°33' W 030°51'0 0.0 1021.9 25.8
2015-Aug-03 23:00N 26°33' W 030°51'1 0.3 1023.0 25.9
2015-Aug-03 20:00N 26°33' W 030°51'1 0.5 1021.7 26.0
2015-Aug-03 19:00N 26°33' W 030°50'0 0.4 1021.5 26.1
2015-Aug-03 18:00N 26°33' W 030°50'0 0.0 1021.4 26.1
2015-Aug-03 17:00N 26°33' W 030°50'0 0.0 1021.4 26.1
2015-Aug-03 15:00N 26°33' W 030°50'0 0.3 1021.7 26.0
2015-Aug-03 14:00N 26°33' W 030°50'0 0.1 1021.9 25.9
2015-Aug-03 08:00N 26°34' W 030°50'1 0.3 1020.5 25.6
2015-Aug-03 06:00N 26°33' W 030°50'0 0.0 1020.0 25.6
2015-Aug-03 05:00N 26°33' W 030°50'0 0.0 1020.0 25.6
2015-Aug-03 04:00N 26°33' W 030°50'1 0.1 1020.2 25.6
2015-Aug-02 23:00N 26°33' W 030°49'0 0.0 1021.0 25.7
2015-Aug-02 18:00N 26°33' W 030°49'0 0.2 1019.0 26.0
2015-Aug-02 17:00N 26°33' W 030°49'0 0.1 1019.2 26.0
2015-Aug-02 15:00N 26°33' W 030°49'0 0.2 1019.5 25.9
2015-Aug-02 14:00N 26°33' W 030°49'0 0.2 1019.7 25.8
2015-Aug-02 12:00N 26°33' W 030°49'0 0.0 1019.9 25.6
2015-Aug-02 11:00N 26°33' W 030°49'0 0.0 1019.5 25.5
2015-Aug-02 08:00N 26°33' W 030°49'0 0.2 1018.5 25.4
2015-Aug-02 07:00N 26°33' W 030°49'0 0.0 1018.4 25.4
2015-Aug-02 06:00N 26°33' W 030°49'0 0.2 1018.0 25.4
2015-Aug-02 05:00N 26°33' W 030°49'0 0.1 1018.2 25.4
2015-Aug-02 04:00N 26°33' W 030°49'0 0.0 1018.7 25.5
2015-Aug-02 03:00N 26°33' W 030°49'1 0.1 1019.0 25.5
2015-Aug-01 23:00N 26°33' W 030°50'0 0.1 1020.0 25.5
2015-Aug-01 21:00N 26°33' W 030°49'0 0.1 1019.0 25.5
2015-Aug-01 20:00N 26°33' W 030°49'0 0.2 1018.7 25.6
2015-Aug-01 18:00N 26°33' W 030°49'1 0.7 1018.7 25.6
2015-Aug-01 17:00N 26°34' W 030°49'0 0.0 1018.9 25.5
2015-Aug-01 16:00N 26°34' W 030°49'0 0.0 1019.2 25.6
2015-Aug-01 07:00N 26°34' W 030°49'1 0.1 1019.4 25.4
2015-Jul-31 20:00N 26°34' W 030°48'1 0.5 1020.4 25.5
2015-Jul-31 19:00N 26°34' W 030°47'1 0.2 1020.2 25.6
2015-Jul-31 16:00N 26°35' W 030°47'2 0.2 1020.9 25.6
2015-Jul-31 07:00N 26°33' W 030°49'2 0.1 1021.0 25.4
2015-Jul-30 05:00N 26°31' W 030°48'1 0.2 1021.0 25.5
2015-Jul-29 20:00N 26°31' W 030°46'0 0.4 1020.7 25.7
2015-Jul-29 19:00N 26°31' W 030°46'2 0.2 1020.5 25.7
2015-Jul-29 07:00N 26°29' W 030°46'0 0.0 1020.2 25.4
2015-Jul-29 05:00N 26°29' W 030°46'1 0.1 1020.0 25.5
2015-Jul-28 12:00N 26°30' W 030°45'0 0.1 1020.7 25.5
2015-Jul-28 11:00N 26°30' W 030°45'0 0.2 1020.9 25.4
2015-Jul-28 09:00N 26°30' W 030°46'1 0.1 1020.4 25.3
2015-Jul-27 23:00N 26°30' W 030°45'1 0.1 1021.5 25.4
2015-Jul-27 08:00N 26°30' W 030°45'1 0.1 1021.2 25.2
2015-Jul-27 00:00N 26°30' W 030°45'1 0.6 1022.2 25.3
2015-Jul-26 23:00N 26°30' W 030°45'0 0.1 1022.0 25.3
2015-Jul-26 19:00N 26°30' W 030°45'0 0.1 1020.9 25.4
2015-Jul-26 17:00N 26°30' W 030°45'0 0.0 1021.0 25.4
2015-Jul-26 16:00N 26°30' W 030°45'0 0.0 1021.5 25.4
2015-Jul-26 15:00N 26°30' W 030°45'0 0.1 1021.5 25.3
2015-Jul-26 12:00N 26°30' W 030°45'0 0.0 1022.2 25.2
2015-Jul-26 11:00N 26°30' W 030°45'1 0.4 1022.2 25.2
2015-Jul-26 08:00N 26°29' W 030°45'0 0.0 1021.7 25.1
2015-Jul-26 06:00N 26°29' W 030°45'0 0.0 1021.2 25.2
2015-Jul-26 05:00N 26°29' W 030°45'1 1.3 1021.2 25.2
2015-Jul-26 04:00N 26°30' W 030°44'0 0.0 1021.4 25.2
2015-Jul-26 03:00N 26°30' W 030°44'1 0.1 1021.9 25.2
2015-Jul-25 22:00N 26°30' W 030°44'0 0.1 1022.5 25.2
2015-Jul-25 17:00N 26°30' W 030°44'3 0.3 1022.2 25.2
2015-Jul-25 07:00N 26°28' W 030°43'1 1.3 1022.2 25.1
2015-Jul-25 06:00N 26°29' W 030°44'1 0.7 1021.9 25.1
2015-Jul-25 04:00N 26°28' W 030°43'   1022.0 25.1
Track history (hours):
 
Tides and Currents Weather Stations Pressure Air Temp Water Temp Dewpoint Dewpoint Depression Visibility Wind Speed Wind Dir Waves Ship Positions

Drifting buoy 13569

Last reported at 2015-Aug-04 04:00 UTC. Time now 2015-Aug-04 07:28 UTC.
Position N 26°33' W 030°51'.

Barometer 1021.4 mb
Water temperature 25.8 ° C

Date/timePositionNaut miles runAvg speedWind from/ knotsBaromVisibWave heightAir tempDewpointWater temp
2015-Aug-04 04:00N 26°33' W 030°51'0 0.0 1021.4 25.8
2015-Aug-04 03:00N 26°33' W 030°51'0 0.0 1021.9 25.8
2015-Aug-03 23:00N 26°33' W 030°51'1 0.3 1023.0 25.9
2015-Aug-03 20:00N 26°33' W 030°51'1 0.5 1021.7 26.0
2015-Aug-03 19:00N 26°33' W 030°50'0 0.4 1021.5 26.1
2015-Aug-03 18:00N 26°33' W 030°50'0 0.0 1021.4 26.1
2015-Aug-03 17:00N 26°33' W 030°50'0 0.0 1021.4 26.1
2015-Aug-03 15:00N 26°33' W 030°50'0 0.3 1021.7 26.0
2015-Aug-03 14:00N 26°33' W 030°50'0 0.1 1021.9 25.9
2015-Aug-03 08:00N 26°34' W 030°50'1 0.3 1020.5 25.6
2015-Aug-03 06:00N 26°33' W 030°50'0 0.0 1020.0 25.6
2015-Aug-03 05:00N 26°33' W 030°50'0 0.0 1020.0 25.6
2015-Aug-03 04:00N 26°33' W 030°50'1 0.1 1020.2 25.6
2015-Aug-02 23:00N 26°33' W 030°49'0 0.0 1021.0 25.7
2015-Aug-02 18:00N 26°33' W 030°49'0 0.2 1019.0 26.0
2015-Aug-02 17:00N 26°33' W 030°49'0 0.1 1019.2 26.0
2015-Aug-02 15:00N 26°33' W 030°49'0 0.2 1019.5 25.9
2015-Aug-02 14:00N 26°33' W 030°49'0 0.2 1019.7 25.8
2015-Aug-02 12:00N 26°33' W 030°49'0 0.0 1019.9 25.6
2015-Aug-02 11:00N 26°33' W 030°49'0 0.0 1019.5 25.5
2015-Aug-02 08:00N 26°33' W 030°49'0 0.2 1018.5 25.4
2015-Aug-02 07:00N 26°33' W 030°49'0 0.0 1018.4 25.4
2015-Aug-02 06:00N 26°33' W 030°49'0 0.2 1018.0 25.4
2015-Aug-02 05:00N 26°33' W 030°49'0 0.1 1018.2 25.4
2015-Aug-02 04:00N 26°33' W 030°49'0 0.0 1018.7 25.5
2015-Aug-02 03:00N 26°33' W 030°49'1 0.1 1019.0 25.5
2015-Aug-01 23:00N 26°33' W 030°50'0 0.1 1020.0 25.5
2015-Aug-01 21:00N 26°33' W 030°49'0 0.1 1019.0 25.5
2015-Aug-01 20:00N 26°33' W 030°49'0 0.2 1018.7 25.6
2015-Aug-01 18:00N 26°33' W 030°49'1 0.7 1018.7 25.6
2015-Aug-01 17:00N 26°34' W 030°49'0 0.0 1018.9 25.5
2015-Aug-01 16:00N 26°34' W 030°49'0 0.0 1019.2 25.6
2015-Aug-01 07:00N 26°34' W 030°49'1 0.1 1019.4 25.4
2015-Jul-31 20:00N 26°34' W 030°48'1 0.5 1020.4 25.5
2015-Jul-31 19:00N 26°34' W 030°47'1 0.2 1020.2 25.6
2015-Jul-31 16:00N 26°35' W 030°47'2 0.2 1020.9 25.6
2015-Jul-31 07:00N 26°33' W 030°49'2 0.1 1021.0 25.4
2015-Jul-30 05:00N 26°31' W 030°48'1 0.2 1021.0 25.5
2015-Jul-29 20:00N 26°31' W 030°46'0 0.4 1020.7 25.7
2015-Jul-29 19:00N 26°31' W 030°46'2 0.2 1020.5 25.7
2015-Jul-29 07:00N 26°29' W 030°46'0 0.0 1020.2 25.4
2015-Jul-29 05:00N 26°29' W 030°46'1 0.1 1020.0 25.5
2015-Jul-28 12:00N 26°30' W 030°45'0 0.1 1020.7 25.5
2015-Jul-28 11:00N 26°30' W 030°45'0 0.2 1020.9 25.4
2015-Jul-28 09:00N 26°30' W 030°46'1 0.1 1020.4 25.3
2015-Jul-27 23:00N 26°30' W 030°45'1 0.1 1021.5 25.4
2015-Jul-27 08:00N 26°30' W 030°45'1 0.1 1021.2 25.2
2015-Jul-27 00:00N 26°30' W 030°45'1 0.6 1022.2 25.3
2015-Jul-26 23:00N 26°30' W 030°45'0 0.1 1022.0 25.3
2015-Jul-26 19:00N 26°30' W 030°45'0 0.1 1020.9 25.4
2015-Jul-26 17:00N 26°30' W 030°45'0 0.0 1021.0 25.4
2015-Jul-26 16:00N 26°30' W 030°45'0 0.0 1021.5 25.4
2015-Jul-26 15:00N 26°30' W 030°45'0 0.1 1021.5 25.3
2015-Jul-26 12:00N 26°30' W 030°45'0 0.0 1022.2 25.2
2015-Jul-26 11:00N 26°30' W 030°45'1 0.4 1022.2 25.2
2015-Jul-26 08:00N 26°29' W 030°45'0 0.0 1021.7 25.1
2015-Jul-26 06:00N 26°29' W 030°45'0 0.0 1021.2 25.2
2015-Jul-26 05:00N 26°29' W 030°45'1 1.3 1021.2 25.2
2015-Jul-26 04:00N 26°30' W 030°44'0 0.0 1021.4 25.2
2015-Jul-26 03:00N 26°30' W 030°44'1 0.1 1021.9 25.2
2015-Jul-25 22:00N 26°30' W 030°44'0 0.1 1022.5 25.2
2015-Jul-25 17:00N 26°30' W 030°44'3 0.3 1022.2 25.2
2015-Jul-25 07:00N 26°28' W 030°43'1 1.3 1022.2 25.1
2015-Jul-25 06:00N 26°29' W 030°44'1 0.7 1021.9 25.1
2015-Jul-25 04:00N 26°28' W 030°43'   1022.0 25.1

Dump ship's entire track history